Flight Track Log - Related Links

Times and Time Zones

All times are in EDT time to prevent confusion due to time zone crossing. See the JBU83 flight status page for this flight to view local times or setup timezone preferences in your user account.

Time Position Orientation Groundspeed Altitude Reporting Facility
EDT Latitude Longitude Course Direction KTS MPH feet Rate Location/Type
Sat 03:34:55 PM 40.6225 -73.8881 220° Southwest 179 206 2,500  Level New York Center
Sat 03:35:56 PM 40.5764 -73.8231 133° Southeast 146 168 5,600 2,723 Climbing New York Center
Sat 03:36:00 PM 40.3346 -73.5013 143° Southeast  Level FlightAware Approximate
Sat 03:36:54 PM 40.5644 -73.7161 98° East 259 298 7,900  Level New York Center
Sat 03:37:00 PM 40.2499 -73.3999 143° Southeast  Level FlightAware Approximate
Sat 03:37:55 PM 40.5508 -73.6008 99° East 303 349 10,300  Level New York Center
Sat 03:38:00 PM 40.1492 -73.3085 146° Southeast  Level FlightAware Approximate
Sat 03:38:55 PM 40.4711 -73.5319 147° Southeast 301 346 11,400  Level New York Center
Sat 03:39:00 PM 40.0518 -73.2879 223° Southwest  Level FlightAware Approximate
Sat 03:39:55 PM 40.3869 -73.4822 156° South 349 402 13,500  Level New York Center
Sat 03:40:00 PM 39.9598 -73.3933 220° Southwest  Level FlightAware Approximate
Sat 03:40:56 PM 40.2839 -73.4239 157° South 368 423 16,800  Level New York Center
Sat 03:41:55 PM 40.2025 -73.4289 183° South 342 394 17,800 1,008 Climbing New York Center
Sat 03:42:55 PM 40.1117 -73.4903 207° Southwest 346 398 18,800 1,357 Climbing New York Center
Sat 03:45:14 PM 39.8814 -73.6664 210° Southwest 393 452 22,300 1,410 Climbing Washington Center
Sat 03:46:15 PM 39.7825 -73.7419 210° Southwest 405 466 23,500 1,169 Climbing Washington Center
Sat 03:47:12 PM 39.6817 -73.8175 210° Southwest 417 480 24,600 1,179 Climbing Washington Center
Sat 03:48:12 PM 39.5806 -73.8925 210° Southwest 424 488 25,800 942 Climbing Washington Center
Sat 03:49:13 PM 39.4711 -73.9731 210° Southwest 437 503 26,500 738 Climbing Washington Center
Sat 03:50:14 PM 39.3806 -74.0478 213° Southwest 445 512 27,300 900 Climbing Washington Center
Sat 03:51:13 PM 39.2753 -74.1358 213° Southwest 445 512 28,300 1,000 Climbing Washington Center
Sat 03:52:14 PM 39.1658 -74.2236 212° Southwest 457 526 29,300 1,008 Climbing Washington Center
Sat 03:53:12 PM 39.0628 -74.3083 213° Southwest 457 526 30,300 1,008 Climbing Washington Center
Sat 03:54:13 PM 38.9592 -74.3931 212° Southwest 452 520 31,300 836 Climbing Washington Center
Sat 03:55:14 PM 38.8517 -74.4800 212° Southwest 452 520 32,000 550 Climbing Washington Center
Sat 03:56:24 PM 38.7442 -74.5697 213° Southwest 452 520 32,500 600 Climbing Washington Center
Sat 03:57:24 PM 38.6094 -74.6750 211° Southwest 468 539 33,300 744 Climbing Washington Center
Sat 03:58:25 PM 38.5017 -74.7639 213° Southwest 468 539 34,000 689 Climbing Washington Center
Sat 03:59:26 PM 38.3919 -74.8528 212° Southwest 474 545 34,700 706 Climbing Washington Center
Sat 04:00:24 PM 38.2858 -74.9383 212° Southwest 474 545 35,400 605 Climbing Washington Center
Sat 04:01:25 PM 38.1758 -75.0239 211° Southwest 474 545 35,900 492 Climbing Washington Center
Sat 04:02:26 PM 38.0658 -75.1117 212° Southwest 469 540 36,400 504 Climbing Washington Center
Sat 04:03:24 PM 37.9597 -75.1994 213° Southwest 469 540 36,900 559 Climbing Washington Center
Sat 04:04:24 PM 37.8494 -75.2814 210° Southwest 474 545 37,500 545 Climbing Washington Center
Sat 04:05:25 PM 37.7433 -75.3658 212° Southwest 469 540 38,000 248 Climbing Washington Center
Sat 04:06:25 PM 37.6328 -75.4503 211° Southwest 469 540 38,000  Level Washington Center
Sat 04:07:24 PM 37.5267 -75.5342 212° Southwest 469 540 38,000  Level Washington Center
Sat 04:08:25 PM 37.4181 -75.6181 212° Southwest 469 540 38,000  Level Washington Center
Sat 04:09:24 PM 37.3097 -75.7014 211° Southwest 469 540 38,000 -50 Level Washington Center
Sat 04:10:24 PM 37.2031 -75.7847 212° Southwest 464 534 37,900  Descending Washington Center
Sat 04:11:24 PM 37.0925 -75.8678 211° Southwest 464 534 38,000 50 Climbing Washington Center
Sat 04:12:25 PM 36.9669 -75.9583 210° Southwest 471 542 38,000  Level Washington Center
Sat 04:13:26 PM 36.8625 -76.0383 212° Southwest 471 542 38,000  Level Washington Center
Sat 04:14:24 PM 36.7558 -76.1208 212° Southwest 461 531 38,000  Level Washington Center
Sat 04:15:24 PM 36.6428 -76.2056 211° Southwest 466 536 38,000  Level Washington Center
Sat 04:16:25 PM 36.5358 -76.2872 212° Southwest 466 536 38,000  Level Washington Center
Sat 04:17:26 PM 36.4289 -76.3664 211° Southwest 461 531 38,000  Level Washington Center
Sat 04:18:26 PM 36.3200 -76.4478 211° Southwest 461 531 38,000  Level Washington Center
Sat 04:19:24 PM 36.2086 -76.5289 210° Southwest 456 525 38,000  Level Washington Center
Sat 04:20:25 PM 36.1017 -76.6100 212° Southwest 456 525 38,000  Level Washington Center
Sat 04:21:26 PM 35.9925 -76.6908 211° Southwest 456 525 38,000  Level Washington Center
Sat 04:22:24 PM 35.8811 -76.7686 210° Southwest 456 525 38,000  Level Washington Center
Sat 04:23:24 PM 35.7717 -76.8517 212° Southwest 461 531 38,000  Level Washington Center
Sat 04:24:25 PM 35.6625 -76.9317 211° Southwest 461 531 38,000  Level Washington Center
Sat 04:25:25 PM 35.5572 -77.0064 210° Southwest 455 524 38,000  Level Washington Center
Sat 04:26:27 PM 35.4456 -77.0886 211° Southwest 450 518 38,000  Level Washington Center
Sat 04:27:24 PM 35.3383 -77.1656 210° Southwest 450 518 38,000  Level Washington Center
Sat 04:28:26 PM 35.2267 -77.2447 210° Southwest 450 518 38,000  Level Washington Center
Sat 04:29:26 PM 35.1169 -77.3239 211° Southwest 450 518 38,000  Level Washington Center
Sat 04:30:24 PM 35.0072 -77.4000 210° Southwest 455 524 38,000  Level Washington Center
Sat 04:31:25 PM 34.8978 -77.4786 211° Southwest 455 524 38,000  Level Washington Center
Sat 04:32:25 PM 34.7900 -77.5519 209° Southwest 455 524 38,000  Level Washington Center
Sat 04:33:25 PM 34.6642 -77.5944 196° South 450 518 38,000  Level Washington Center
Sat 04:34:24 PM 34.5403 -77.6342 195° South 461 531 38,000  Level Washington Center
Sat 04:35:24 PM 34.4144 -77.6789 196° South 466 536 38,000  Level Washington Center
Sat 04:36:24 PM 34.2886 -77.7211 195° South 466 536 38,000  Level Washington Center
Sat 04:37:25 PM 34.1625 -77.7631 195° South 472 543 38,000  Level Washington Center
Sat 04:38:26 PM 34.0344 -77.8097 197° South 477 549 38,000  Level Washington Center
Sat 04:39:55 PM 33.8550 -77.8636 194° South 475 547 38,000  Level Jacksonville Center
Sat 04:40:55 PM 33.7317 -77.9108 198° South 475 547 38,000 -50 Level Jacksonville Center
Sat 04:41:55 PM 33.6103 -77.9525 196° South 469 540 37,900 -50 Descending Jacksonville Center
Sat 04:42:55 PM 33.4847 -77.9944 196° South 469 540 37,900 50 Level Jacksonville Center
Sat 04:43:55 PM 33.3592 -78.0386 196° South 469 540 38,000 50 Climbing Jacksonville Center
Sat 04:44:55 PM 33.2383 -78.0997 203° Southwest 469 540 38,000  Level Jacksonville Center
Sat 04:45:55 PM 33.1217 -78.1606 204° Southwest 469 540 38,000 -50 Level Jacksonville Center
Sat 04:46:55 PM 33.0031 -78.2239 204° Southwest 469 540 37,900  Descending Jacksonville Center
Sat 04:47:55 PM 32.8819 -78.2819 202° Southwest 469 540 38,000 50 Climbing Jacksonville Center
Sat 04:48:55 PM 32.7653 -78.3422 203° Southwest 469 540 38,000  Level Jacksonville Center
Sat 04:49:55 PM 32.6464 -78.4025 203° Southwest 469 540 38,000 -50 Level Jacksonville Center
Sat 04:50:55 PM 32.5272 -78.4603 202° Southwest 469 540 37,900  Descending Jacksonville Center
Sat 04:51:55 PM 32.4103 -78.5200 203° Southwest 469 540 38,000 50 Climbing Jacksonville Center
Sat 04:52:55 PM 32.2833 -78.5900 205° Southwest 469 540 38,000  Level Jacksonville Center
Sat 04:53:55 PM 32.1644 -78.6519 204° Southwest 469 540 38,000 -50 Level Jacksonville Center
Sat 04:54:55 PM 32.0494 -78.7064 202° Southwest 469 540 37,900  Descending Jacksonville Center
Sat 04:55:55 PM 31.9281 -78.7633 202° Southwest 469 540 38,000 50 Climbing Jacksonville Center
Sat 04:56:55 PM 31.8086 -78.8175 201° Southwest 469 540 38,000  Level Jacksonville Center
Sat 04:57:55 PM 31.6894 -78.8717 201° Southwest 465 535 38,000  Level Jacksonville Center
Sat 04:58:55 PM 31.5700 -78.9281 202° Southwest 465 535 38,000 -50 Level Jacksonville Center
Sat 04:59:55 PM 31.4531 -78.9864 203° Southwest 465 535 37,900  Descending Jacksonville Center
Sat 05:00:55 PM 31.3356 -79.0400 201° Southwest 466 536 38,000 50 Climbing Jacksonville Center
Sat 05:01:55 PM 31.2161 -79.0958 202° Southwest 461 531 38,000  Level Jacksonville Center
Sat 05:02:55 PM 31.0969 -79.1542 203° Southwest 458 527 38,000  Level Jacksonville Center
Sat 05:03:55 PM 30.9939 -79.1994 201° Southwest 468 539 38,000  Level Jacksonville Center
Sat 05:04:55 PM 30.8700 -79.2525 200° South 469 540 38,000  Level Jacksonville Center
Sat 05:05:55 PM 30.7358 -79.3036 198° South 459 528 38,000  Level Jacksonville Center
Sat 05:06:55 PM 30.6161 -79.3517 199° South 465 535 38,000  Level Jacksonville Center
Sat 05:08:53 PM 30.3925 -79.4428 199° South 459 528 38,000  Level Miami Center
Sat 05:09:53 PM 30.2747 -79.4975 202° Southwest 457 526 38,000  Level Miami Center
Sat 05:10:53 PM 30.1569 -79.5544 203° Southwest 457 526 38,000  Level Miami Center
Sat 05:11:53 PM 30.0369 -79.6114 202° Southwest 463 533 38,000  Level Miami Center
Sat 05:12:53 PM 29.9128 -79.6656 201° Southwest 469 540 38,000  Level Miami Center
Sat 05:13:53 PM 29.7928 -79.7222 202° Southwest 476 548 38,000 -350 Level Miami Center
Sat 05:14:53 PM 29.6622 -79.7856 203° Southwest 468 539 37,300 -1,000 Descending Miami Center
Sat 05:15:53 PM 29.5422 -79.8469 204° Southwest 468 539 36,000 -1,700 Descending Miami Center
Sat 05:16:53 PM 29.4161 -79.8981 199° South 475 547 33,900 -2,850 Descending Miami Center
Sat 05:17:53 PM 29.2894 -79.9589 203° Southwest 482 555 30,300 -3,850 Descending Miami Center
Sat 05:18:53 PM 29.1592 -80.0122 200° South 493 567 26,200 -3,750 Descending Miami Center
Sat 05:19:53 PM 29.0325 -80.0728 203° Southwest 493 567 22,800 -3,350 Descending Miami Center
Sat 05:20:53 PM 28.9264 -80.1525 213° Southwest 494 568 19,500 -2,802 Descending Miami Center
Sat 05:22:55 PM 28.8333 -80.4000 247° West 408 470 14,300 -1,813 Descending Orlando TRACON
Sat 05:23:55 PM 28.8167 -80.5167 261° West 335 386 14,000 -789 Descending Orlando TRACON
Sat 05:24:49 PM 28.8000 -80.6000 257° West 288 331 12,800 -1,450 Descending Orlando TRACON
Sat 05:25:55 PM 28.8000 -80.7000 270° West 293 337 11,100 -1,700 Descending Orlando TRACON
Sat 05:26:49 PM 28.7833 -80.7833 257° West 283 326 9,400 -1,842 Descending Orlando TRACON
Sat 05:27:49 PM 28.7667 -80.8667 257° West 284 327 7,600 -1,650 Descending Orlando TRACON
Sat 05:28:49 PM 28.7500 -80.9667 259° West 281 323 6,100 -842 Descending Orlando TRACON
Sat 05:29:43 PM 28.7500 -81.0333 270° West 279 321 6,000 -53 Descending Orlando TRACON
Sat 05:30:43 PM 28.7333 -81.1167 257° West 276 318 6,000 -905 Level Orlando TRACON
Sat 05:31:49 PM 28.7000 -81.2167 249° West 261 300 4,100 -1,429 Descending Orlando TRACON
Sat 05:32:49 PM 28.6500 -81.2667 221° Southwest 235 270 3,000 -579 Descending Orlando TRACON
Sat 05:33:43 PM 28.6000 -81.2833 196° South 198 228 3,000 -474 Level Orlando TRACON
Sat 05:34:43 PM 28.5500 -81.2833 180° South 182 209 2,100 -857 Descending Orlando TRACON
Sat 05:35:49 PM 28.5000 -81.2833 180° South 149 171 1,200 -756 Descending Orlando TRACON
Sat 05:36:50 PM 28.4667 -81.2833 180° South 134 154 500 -689 Descending Orlando TRACON

Login

Don't have an account? Register now (free) for customized features, flight alerts, and more!